createdAt,value
2023-10-16T00:01:11.011Z,6.40
2023-10-16T00:03:42.921Z,6.40
2023-10-16T00:06:18.269Z,6.40
2023-10-16T00:08:49.372Z,6.40
2023-10-16T00:11:20.054Z,6.30
2023-10-16T00:13:51.455Z,6.30
2023-10-16T00:16:23.056Z,6.30
2023-10-16T00:18:55.706Z,6.30
2023-10-16T00:21:27.021Z,6.20
2023-10-16T00:23:56.178Z,6.20
2023-10-16T00:26:24.061Z,6.20
2023-10-16T00:29:18.510Z,6.10
2023-10-16T00:31:52.532Z,6.10
2023-10-16T00:34:23.704Z,6.10
2023-10-16T00:36:55.998Z,6.00
2023-10-16T00:39:30.152Z,6.00
2023-10-16T00:41:59.217Z,6.00
2023-10-16T00:44:35.359Z,6.00
2023-10-16T00:47:08.629Z,6.00
2023-10-16T00:49:36.693Z,6.00
2023-10-16T00:52:05.480Z,5.90
2023-10-16T00:54:40.989Z,5.90
2023-10-16T00:57:11.679Z,5.90
2023-10-16T00:59:40.899Z,5.90
2023-10-16T01:02:19.213Z,5.90
2023-10-16T01:04:48.530Z,5.90
2023-10-16T01:07:17.183Z,5.80
2023-10-16T01:09:48.695Z,5.80
2023-10-16T01:12:21.506Z,5.80
2023-10-16T01:14:49.438Z,5.80
2023-10-16T01:17:18.927Z,5.80
2023-10-16T01:19:46.586Z,5.80
2023-10-16T01:22:15.471Z,5.70
2023-10-16T01:24:46.966Z,5.70
2023-10-16T01:27:28.754Z,5.70
2023-10-16T01:30:01.530Z,5.70
2023-10-16T01:32:30.078Z,5.70
2023-10-16T01:34:57.913Z,5.60
2023-10-16T01:37:29.938Z,5.70
2023-10-16T01:40:15.864Z,5.60
2023-10-16T01:42:44.054Z,5.60
2023-10-16T01:45:13.568Z,5.60
2023-10-16T01:47:41.504Z,5.60
2023-10-16T01:50:22.139Z,5.60
2023-10-16T01:52:50.742Z,5.60
2023-10-16T01:55:20.419Z,5.60
2023-10-16T01:57:49.322Z,5.60
2023-10-16T02:00:19.085Z,5.60
2023-10-16T02:02:47.368Z,5.60
2023-10-16T02:05:17.021Z,5.60
2023-10-16T02:07:44.739Z,5.50
2023-10-16T02:10:13.702Z,5.50
2023-10-16T02:12:41.441Z,5.50
2023-10-16T02:15:10.579Z,5.50
2023-10-16T02:17:40.178Z,5.50
2023-10-16T02:20:12.870Z,5.50
2023-10-16T02:22:41.588Z,5.50
2023-10-16T02:25:09.813Z,5.50
2023-10-16T02:27:37.759Z,5.50
2023-10-16T02:30:26.519Z,5.50
2023-10-16T02:33:00.981Z,5.40
2023-10-16T02:35:28.885Z,5.40
2023-10-16T02:37:59.043Z,5.40
2023-10-16T02:40:26.843Z,5.40
2023-10-16T02:43:01.823Z,5.30
2023-10-16T02:45:32.636Z,5.30
2023-10-16T02:48:00.281Z,5.30
2023-10-16T02:50:27.827Z,5.30
2023-10-16T02:52:55.866Z,5.30
2023-10-16T02:55:24.755Z,5.30
2023-10-16T02:57:52.498Z,5.20
2023-10-16T03:00:36.751Z,5.20
2023-10-16T03:03:08.538Z,5.20
2023-10-16T03:05:36.060Z,5.20
2023-10-16T03:08:03.822Z,5.20
2023-10-16T03:10:32.236Z,5.20
2023-10-16T03:13:06.744Z,5.20
2023-10-16T03:15:48.248Z,5.20
2023-10-16T03:18:20.775Z,5.20
2023-10-16T03:20:49.560Z,5.20
2023-10-16T03:23:20.385Z,5.10
2023-10-16T03:25:53.944Z,5.10
2023-10-16T03:28:21.573Z,5.10
2023-10-16T03:30:50.690Z,5.10
2023-10-16T03:33:20.232Z,5.00
2023-10-16T03:35:50.572Z,5.00
2023-10-16T03:38:28.354Z,5.10
2023-10-16T03:40:57.914Z,5.00
2023-10-16T03:43:26.472Z,5.00
2023-10-16T03:45:54.146Z,5.00
2023-10-16T03:48:23.118Z,5.00
2023-10-16T03:50:57.118Z,5.00
2023-10-16T03:53:25.343Z,5.00
2023-10-16T03:55:53.143Z,5.00
2023-10-16T03:58:20.620Z,5.00
2023-10-16T04:00:58.180Z,5.00
2023-10-16T04:03:37.454Z,5.00
2023-10-16T04:06:10.263Z,5.00
2023-10-16T04:08:37.963Z,5.00
2023-10-16T04:11:09.010Z,5.00
2023-10-16T04:13:41.440Z,5.00
2023-10-16T04:16:08.864Z,5.00
2023-10-16T04:18:40.888Z,5.00
2023-10-16T04:21:11.952Z,5.00
2023-10-16T04:23:49.087Z,5.00
2023-10-16T04:26:29.539Z,5.00
2023-10-16T04:29:11.362Z,5.00
2023-10-16T04:31:55.642Z,5.00
2023-10-16T04:34:27.032Z,5.00
2023-10-16T04:37:15.840Z,5.00
2023-10-16T04:39:56.851Z,5.00
2023-10-16T04:42:38.258Z,5.00
2023-10-16T04:45:15.866Z,5.00
2023-10-16T04:48:08.518Z,5.00
2023-10-16T04:53:12.587Z,5.00
2023-10-16T04:55:47.714Z,5.00
2023-10-16T04:58:21.132Z,5.00
2023-10-16T05:01:02.981Z,5.00
2023-10-16T05:03:52.532Z,5.00
2023-10-16T05:06:20.021Z,5.00
2023-10-16T05:09:07.800Z,5.00
2023-10-16T05:11:36.437Z,5.00
2023-10-16T05:14:23.321Z,5.00
2023-10-16T05:17:11.097Z,5.00
2023-10-16T05:19:39.333Z,5.00
2023-10-16T05:22:41.444Z,5.00
2023-10-16T05:25:29.186Z,5.00
2023-10-16T05:28:15.308Z,5.00
2023-10-16T05:31:02.625Z,5.00
2023-10-16T05:33:48.676Z,5.00
2023-10-16T05:36:34.785Z,5.00
2023-10-16T05:39:31.372Z,5.00
2023-10-16T05:42:17.616Z,5.00
2023-10-16T05:45:03.741Z,5.00
2023-10-16T05:47:49.887Z,5.00
2023-10-16T05:50:36.203Z,5.00
2023-10-16T05:53:22.613Z,5.00
2023-10-16T05:56:08.881Z,5.10
2023-10-16T05:58:56.854Z,5.00
2023-10-16T06:01:43.115Z,5.00
2023-10-16T06:04:29.361Z,5.00
2023-10-16T06:07:15.824Z,5.00
2023-10-16T06:10:01.964Z,5.00
2023-10-16T06:12:48.409Z,5.00
2023-10-16T06:15:22.810Z,5.00
2023-10-16T06:17:52.877Z,5.00
2023-10-16T06:20:22.562Z,5.00
2023-10-16T06:22:52.669Z,5.00
2023-10-16T06:25:21.134Z,5.10
2023-10-16T06:27:49.156Z,5.10
2023-10-16T06:30:20.379Z,5.10
2023-10-16T06:32:50.740Z,5.10
2023-10-16T06:35:19.261Z,5.10
2023-10-16T06:37:52.994Z,5.10
2023-10-16T06:40:25.896Z,5.10
2023-10-16T06:43:10.489Z,5.10
2023-10-16T06:45:56.352Z,5.10
2023-10-16T06:48:24.162Z,5.10
2023-10-16T06:50:55.048Z,5.10
2023-10-16T06:53:25.590Z,5.20
2023-10-16T06:55:53.238Z,5.20
2023-10-16T06:58:23.693Z,5.10
2023-10-16T07:00:53.443Z,5.20
2023-10-16T07:03:22.665Z,5.20
2023-10-16T07:05:50.137Z,5.20
2023-10-16T07:08:20.159Z,5.20
2023-10-16T07:11:04.770Z,5.30
2023-10-16T07:13:32.968Z,5.30
2023-10-16T07:16:03.233Z,5.30
2023-10-16T07:18:36.912Z,5.30
2023-10-16T07:21:05.087Z,5.40
2023-10-16T07:23:36.774Z,5.40
2023-10-16T07:26:10.366Z,5.40
2023-10-16T07:28:41.594Z,5.50
2023-10-16T07:31:12.184Z,5.50
2023-10-16T07:33:42.434Z,5.50
2023-10-16T07:36:13.432Z,5.50
2023-10-16T07:38:41.454Z,5.50
2023-10-16T07:41:10.792Z,5.60
2023-10-16T07:43:38.273Z,5.60
2023-10-16T07:46:13.353Z,5.70
2023-10-16T07:48:45.722Z,5.80
2023-10-16T07:51:16.239Z,5.80
2023-10-16T07:53:44.553Z,5.90
2023-10-16T07:56:21.123Z,5.90
2023-10-16T07:58:49.794Z,5.90
2023-10-16T08:01:17.639Z,6.00
2023-10-16T08:03:49.992Z,6.10
2023-10-16T08:06:25.966Z,6.10
2023-10-16T08:09:14.073Z,6.20
2023-10-16T08:11:44.295Z,6.20
2023-10-16T08:14:14.160Z,6.30
2023-10-16T08:16:42.213Z,6.30
2023-10-16T08:19:17.426Z,6.30
2023-10-16T08:21:47.057Z,6.40
2023-10-16T08:24:16.126Z,6.40
2023-10-16T08:26:44.877Z,6.50
2023-10-16T08:29:13.045Z,6.60
2023-10-16T08:32:10.777Z,6.70
2023-10-16T08:34:41.746Z,6.70
2023-10-16T08:37:14.546Z,6.80
2023-10-16T08:39:50.937Z,6.90
2023-10-16T08:42:22.062Z,6.90
2023-10-16T08:44:52.330Z,7.10
2023-10-16T08:47:25.932Z,7.20
2023-10-16T08:49:59.738Z,7.20
2023-10-16T08:52:35.514Z,7.40
2023-10-16T08:55:15.918Z,7.50
2023-10-16T08:57:46.946Z,7.60
2023-10-16T09:00:21.069Z,7.70
2023-10-16T09:02:52.746Z,7.80
2023-10-16T09:05:22.488Z,7.90
2023-10-16T09:07:50.427Z,8.00
2023-10-16T09:10:22.518Z,8.00
2023-10-16T09:13:05.580Z,8.10
2023-10-16T09:15:33.868Z,8.20
2023-10-16T09:18:01.596Z,8.30
2023-10-16T09:20:42.457Z,8.40
2023-10-16T09:23:26.376Z,8.60
2023-10-16T09:25:57.833Z,8.70
2023-10-16T09:28:25.393Z,8.80
2023-10-16T09:31:04.907Z,8.90
2023-10-16T09:33:36.865Z,9.00
2023-10-16T09:36:18.959Z,9.20
2023-10-16T09:38:54.892Z,9.30
2023-10-16T09:41:26.854Z,9.40
2023-10-16T09:44:23.088Z,9.50
2023-10-16T09:46:54.691Z,9.70
2023-10-16T09:49:28.963Z,9.80
2023-10-16T09:52:06.619Z,9.90
2023-10-16T09:54:36.968Z,10.10
2023-10-16T09:57:08.685Z,10.30
2023-10-16T09:59:41.277Z,10.40
2023-10-16T10:02:17.851Z,10.50
2023-10-16T10:05:10.792Z,10.60
2023-10-16T10:07:50.279Z,10.80
2023-10-16T10:10:32.026Z,10.90
2023-10-16T10:13:11.416Z,11.00
2023-10-16T10:15:45.952Z,11.20
2023-10-16T10:18:34.219Z,11.30
2023-10-16T10:21:04.258Z,11.40
2023-10-16T10:23:33.659Z,11.50
2023-10-16T10:26:06.466Z,11.70
2023-10-16T10:28:37.405Z,11.80
2023-10-16T10:31:06.596Z,11.90
2023-10-16T10:33:52.733Z,12.00
2023-10-16T10:36:40.140Z,12.20
2023-10-16T10:39:25.127Z,12.30
2023-10-16T10:41:58.065Z,12.40
2023-10-16T10:44:32.560Z,12.60
2023-10-16T10:47:05.431Z,12.70
2023-10-16T10:49:34.640Z,12.80
2023-10-16T10:52:03.567Z,13.00
2023-10-16T10:54:31.111Z,13.10
2023-10-16T10:57:08.534Z,13.30
2023-10-16T10:59:42.844Z,13.40
2023-10-16T11:02:18.188Z,13.60
2023-10-16T11:04:47.334Z,13.80
2023-10-16T11:07:27.724Z,13.90
2023-10-16T11:09:58.875Z,14.10
2023-10-16T11:12:26.685Z,14.20
2023-10-16T11:14:55.362Z,14.30
2023-10-16T11:17:41.370Z,14.50
2023-10-16T11:20:21.146Z,14.60
2023-10-16T11:22:48.890Z,14.70
2023-10-16T11:25:16.891Z,14.70
2023-10-16T11:27:45.439Z,14.80
2023-10-16T11:30:19.633Z,14.80
2023-10-16T11:32:48.540Z,14.90
2023-10-16T11:35:18.119Z,14.90
2023-10-16T11:37:53.534Z,15.00
2023-10-16T11:40:32.900Z,15.10
2023-10-16T11:43:01.989Z,15.10
2023-10-16T11:45:34.417Z,15.10
2023-10-16T11:48:27.058Z,15.20
2023-10-16T11:51:06.901Z,15.30
2023-10-16T11:53:36.254Z,15.30
2023-10-16T11:56:04.503Z,15.40
2023-10-16T11:58:32.464Z,15.40
2023-10-16T12:01:29.241Z,15.50
2023-10-16T12:03:58.651Z,15.60
2023-10-16T12:06:26.695Z,15.60
2023-10-16T12:08:55.595Z,15.70
2023-10-16T12:11:23.374Z,15.80
2023-10-16T12:13:52.858Z,15.90
2023-10-16T12:16:35.566Z,15.90
2023-10-16T12:19:06.517Z,16.00
2023-10-16T12:21:34.429Z,16.00
2023-10-16T12:24:02.410Z,16.00
2023-10-16T12:26:30.435Z,16.00
2023-10-16T12:29:01.051Z,16.10
2023-10-16T12:31:28.506Z,16.10
2023-10-16T12:33:56.516Z,16.10
2023-10-16T12:36:25.114Z,16.10
2023-10-16T12:38:54.790Z,16.10
2023-10-16T12:41:24.466Z,16.10
2023-10-16T12:43:52.149Z,16.00
2023-10-16T12:46:19.902Z,16.00
2023-10-16T12:48:47.958Z,16.00
2023-10-16T12:51:16.430Z,16.00
2023-10-16T12:53:43.976Z,16.00
2023-10-16T12:56:13.734Z,16.00
2023-10-16T12:58:41.633Z,16.00
2023-10-16T13:01:11.831Z,16.00
2023-10-16T13:03:41.526Z,15.90
2023-10-16T13:06:09.290Z,15.90
2023-10-16T13:08:36.989Z,15.90
2023-10-16T13:11:08.494Z,15.90
2023-10-16T13:13:36.126Z,15.90
2023-10-16T13:16:05.515Z,15.90
2023-10-16T13:18:35.224Z,15.80
2023-10-16T13:21:08.247Z,15.80
2023-10-16T13:23:45.954Z,15.80
2023-10-16T13:26:16.266Z,15.70
2023-10-16T13:28:44.498Z,15.70
2023-10-16T13:31:12.355Z,15.70
2023-10-16T13:33:42.958Z,15.70
2023-10-16T13:36:12.990Z,15.70
2023-10-16T13:38:41.078Z,15.70
2023-10-16T13:41:18.252Z,15.60
2023-10-16T13:43:46.931Z,15.60
2023-10-16T13:46:15.869Z,15.50
2023-10-16T13:48:50.354Z,15.50
2023-10-16T13:51:17.924Z,15.50
2023-10-16T13:53:48.169Z,15.50
2023-10-16T13:56:17.375Z,15.50
2023-10-16T13:58:50.674Z,15.50
2023-10-16T14:01:18.131Z,15.40
2023-10-16T14:03:45.790Z,15.40
2023-10-16T14:09:11.649Z,15.30
2023-10-16T14:11:48.810Z,15.30
2023-10-16T14:14:19.930Z,15.30
2023-10-16T14:16:53.249Z,15.30
2023-10-16T14:19:30.172Z,15.30
2023-10-16T14:22:01.291Z,15.30
2023-10-16T14:24:29.473Z,15.20
2023-10-16T14:27:00.571Z,15.20
2023-10-16T14:29:29.705Z,15.20
2023-10-16T14:31:58.646Z,15.30
2023-10-16T14:34:28.337Z,15.20
2023-10-16T14:36:57.010Z,15.20
2023-10-16T14:39:29.399Z,15.20
2023-10-16T14:42:06.995Z,15.20
2023-10-16T14:44:35.390Z,15.20
2023-10-16T14:47:10.423Z,15.20
2023-10-16T14:49:38.780Z,15.20
2023-10-16T14:52:07.187Z,15.20
2023-10-16T14:54:36.262Z,15.20
2023-10-16T14:57:05.126Z,15.20
2023-10-16T14:59:36.256Z,15.20
2023-10-16T15:02:04.651Z,15.20
2023-10-16T15:04:32.629Z,15.30
2023-10-16T15:07:06.035Z,15.20
2023-10-16T15:09:34.797Z,15.30
2023-10-16T15:12:02.401Z,15.20
2023-10-16T15:14:30.694Z,15.20
2023-10-16T15:16:58.404Z,15.20
2023-10-16T15:19:28.290Z,15.20
2023-10-16T15:21:56.250Z,15.10
2023-10-16T15:24:23.869Z,15.10
2023-10-16T15:26:51.542Z,15.10
2023-10-16T15:29:18.994Z,15.10
2023-10-16T15:31:47.502Z,15.10
2023-10-16T15:34:15.324Z,15.10
2023-10-16T15:36:44.420Z,15.00
2023-10-16T15:39:17.127Z,15.10
2023-10-16T15:41:46.431Z,15.10
2023-10-16T15:44:14.480Z,15.10
2023-10-16T15:46:42.250Z,15.10
2023-10-16T15:49:09.936Z,15.00
2023-10-16T15:51:38.100Z,15.00
2023-10-16T15:54:06.322Z,15.00
2023-10-16T15:56:33.978Z,15.00
2023-10-16T15:59:01.630Z,14.90
2023-10-16T16:01:29.365Z,14.90
2023-10-16T16:04:01.321Z,14.90
2023-10-16T16:06:32.248Z,14.90
2023-10-16T16:09:03.784Z,14.80
2023-10-16T16:11:32.670Z,14.80
2023-10-16T16:14:00.435Z,14.80
2023-10-16T16:16:28.297Z,14.80
2023-10-16T16:18:55.933Z,14.80
2023-10-16T16:21:23.559Z,14.80
2023-10-16T16:23:51.086Z,14.70
2023-10-16T16:26:18.625Z,14.70
2023-10-16T16:28:48.632Z,14.70
2023-10-16T16:31:17.893Z,14.70
2023-10-16T16:33:45.737Z,14.60
2023-10-16T16:36:15.580Z,14.60
2023-10-16T16:38:44.134Z,14.60
2023-10-16T16:41:13.132Z,14.60
2023-10-16T16:43:41.144Z,14.50
2023-10-16T16:46:09.053Z,14.50
2023-10-16T16:48:37.399Z,14.40
2023-10-16T16:51:05.148Z,14.30
2023-10-16T16:53:33.876Z,14.40
2023-10-16T16:56:01.533Z,14.30
2023-10-16T16:58:29.084Z,14.30
2023-10-16T17:00:57.609Z,14.30
2023-10-16T17:03:27.074Z,14.20
2023-10-16T17:05:55.210Z,14.20
2023-10-16T17:08:24.376Z,14.20
2023-10-16T17:10:54.162Z,14.20
2023-10-16T17:13:22.616Z,14.10
2023-10-16T17:15:50.265Z,14.00
2023-10-16T17:18:19.821Z,14.00
2023-10-16T17:20:48.012Z,14.00
2023-10-16T17:23:17.948Z,13.90
2023-10-16T17:25:45.467Z,13.90
2023-10-16T17:28:17.697Z,13.80
2023-10-16T17:30:47.240Z,13.80
2023-10-16T17:33:15.158Z,13.70
2023-10-16T17:35:43.203Z,13.70
2023-10-16T17:38:11.794Z,13.60
2023-10-16T17:40:39.359Z,13.60
2023-10-16T17:43:07.923Z,13.60
2023-10-16T17:45:35.596Z,13.50
2023-10-16T17:48:03.265Z,13.50
2023-10-16T17:50:31.013Z,13.50
2023-10-16T17:52:58.759Z,13.40
2023-10-16T17:55:26.401Z,13.40
2023-10-16T17:57:54.101Z,13.30
2023-10-16T18:00:25.250Z,13.30
2023-10-16T18:02:52.986Z,13.20
2023-10-16T18:05:22.571Z,13.20
2023-10-16T18:07:51.379Z,13.20
2023-10-16T18:10:19.612Z,13.20
2023-10-16T18:12:47.741Z,13.10
2023-10-16T18:15:15.857Z,13.10
2023-10-16T18:17:44.904Z,13.00
2023-10-16T18:20:17.027Z,13.00
2023-10-16T18:22:45.200Z,13.00
2023-10-16T18:25:16.134Z,13.00
2023-10-16T18:27:43.965Z,12.90
2023-10-16T18:30:12.223Z,12.90
2023-10-16T18:32:41.231Z,12.90
2023-10-16T18:35:09.298Z,12.90
2023-10-16T18:37:37.667Z,12.80
2023-10-16T18:40:10.766Z,12.80
2023-10-16T18:42:38.823Z,12.80
2023-10-16T18:45:11.100Z,12.80
2023-10-16T18:47:38.896Z,12.80
2023-10-16T18:50:08.256Z,12.70
2023-10-16T18:52:36.220Z,12.70
2023-10-16T18:55:09.130Z,12.70
2023-10-16T18:57:36.965Z,12.70
2023-10-16T19:00:05.815Z,12.60
2023-10-16T19:02:34.189Z,12.70
2023-10-16T19:05:01.731Z,12.60
2023-10-16T19:07:29.604Z,12.60
2023-10-16T19:09:57.116Z,12.60
2023-10-16T19:12:25.891Z,12.60
2023-10-16T19:14:55.038Z,12.50
2023-10-16T19:17:22.850Z,12.50
2023-10-16T19:19:50.544Z,12.50
2023-10-16T19:22:18.448Z,12.50
2023-10-16T19:24:47.215Z,12.50
2023-10-16T19:27:14.741Z,12.40
2023-10-16T19:29:42.537Z,12.40
2023-10-16T19:32:13.710Z,12.40
2023-10-16T19:34:41.393Z,12.40
2023-10-16T19:37:09.178Z,12.40
2023-10-16T19:39:36.847Z,12.30
2023-10-16T19:42:05.134Z,12.30
2023-10-16T19:44:32.740Z,12.30
2023-10-16T19:47:00.196Z,12.30
2023-10-16T19:49:29.147Z,12.20
2023-10-16T19:51:56.918Z,12.20
2023-10-16T19:54:24.828Z,12.20
2023-10-16T19:56:52.500Z,12.20
2023-10-16T19:59:21.066Z,12.20
2023-10-16T20:01:48.792Z,12.20
2023-10-16T20:04:16.788Z,12.10
2023-10-16T20:06:44.624Z,12.10
2023-10-16T20:09:25.158Z,12.10
2023-10-16T20:11:59.699Z,12.10
2023-10-16T20:14:33.655Z,12.10
2023-10-16T20:17:12.172Z,12.00
2023-10-16T20:19:41.265Z,12.00
2023-10-16T20:22:08.815Z,12.00
2023-10-16T20:24:36.666Z,12.00
2023-10-16T20:27:07.193Z,12.00
2023-10-16T20:29:35.271Z,11.90
2023-10-16T20:32:03.000Z,11.90
2023-10-16T20:34:30.731Z,11.90
2023-10-16T20:36:58.480Z,11.90
2023-10-16T20:39:28.460Z,11.90
2023-10-16T20:41:56.651Z,11.80
2023-10-16T20:44:24.331Z,11.90
2023-10-16T20:46:52.838Z,11.80
2023-10-16T20:49:20.319Z,11.80
2023-10-16T20:51:47.878Z,11.80
2023-10-16T20:54:15.785Z,11.80
2023-10-16T20:56:43.518Z,11.80
2023-10-16T20:59:11.113Z,11.70
2023-10-16T21:01:39.094Z,11.80
2023-10-16T21:04:07.703Z,11.70
2023-10-16T21:06:35.371Z,11.70
2023-10-16T21:09:03.039Z,11.70
2023-10-16T21:11:32.377Z,11.60
2023-10-16T21:14:00.128Z,11.60
2023-10-16T21:16:27.854Z,11.60
2023-10-16T21:18:55.629Z,11.70
2023-10-16T21:21:23.413Z,11.60
2023-10-16T21:23:51.633Z,11.50
2023-10-16T21:26:19.457Z,11.50
2023-10-16T21:28:47.110Z,11.50
2023-10-16T21:31:15.604Z,11.50
2023-10-16T21:33:45.929Z,11.40
2023-10-16T21:36:13.805Z,11.40
2023-10-16T21:38:41.385Z,11.40
2023-10-16T21:41:09.315Z,11.40
2023-10-16T21:43:37.014Z,11.40
2023-10-16T21:46:05.751Z,11.40
2023-10-16T21:48:39.227Z,11.40
2023-10-16T21:51:06.974Z,11.40
2023-10-16T21:53:34.452Z,11.40
2023-10-16T21:56:02.170Z,11.40
2023-10-16T21:58:29.852Z,11.40
2023-10-16T22:01:00.521Z,11.30
2023-10-16T22:03:28.423Z,11.40
2023-10-16T22:05:56.578Z,11.40
2023-10-16T22:08:24.303Z,11.40
2023-10-16T22:10:52.499Z,11.40
2023-10-16T22:13:20.308Z,11.40
2023-10-16T22:15:47.978Z,11.40
2023-10-16T22:18:16.036Z,11.40
2023-10-16T22:20:45.437Z,11.50
2023-10-16T22:23:14.017Z,11.50
2023-10-16T22:25:41.585Z,11.60
2023-10-16T22:28:09.192Z,11.60
2023-10-16T22:30:38.954Z,11.60
2023-10-16T22:33:08.045Z,11.70
2023-10-16T22:35:44.251Z,11.70
2023-10-16T22:38:11.994Z,11.70
2023-10-16T22:40:41.881Z,11.80
2023-10-16T22:43:09.484Z,11.80
2023-10-16T22:45:41.363Z,11.80
2023-10-16T22:48:10.889Z,11.80
2023-10-16T22:50:38.606Z,11.80
2023-10-16T22:53:06.275Z,11.90
2023-10-16T22:55:35.950Z,11.90
2023-10-16T22:58:03.767Z,11.90
2023-10-16T23:00:31.391Z,12.00
2023-10-16T23:02:59.249Z,12.00
2023-10-16T23:05:26.806Z,12.00
2023-10-16T23:07:54.989Z,12.00
2023-10-16T23:10:22.723Z,12.10
2023-10-16T23:12:53.019Z,12.10
2023-10-16T23:15:22.200Z,12.10
2023-10-16T23:17:51.771Z,12.10
2023-10-16T23:20:25.804Z,12.10
2023-10-16T23:22:54.327Z,12.10
2023-10-16T23:25:22.276Z,12.20
2023-10-16T23:27:52.490Z,12.10
2023-10-16T23:30:26.011Z,12.10
2023-10-16T23:32:54.698Z,12.20
2023-10-16T23:35:26.506Z,12.20
2023-10-16T23:37:54.212Z,12.20
2023-10-16T23:40:34.563Z,12.20
2023-10-16T23:43:11.796Z,12.20
2023-10-16T23:45:41.427Z,12.20
2023-10-16T23:48:19.235Z,12.20
2023-10-16T23:50:51.299Z,12.20
2023-10-16T23:53:32.112Z,12.20
2023-10-16T23:56:30.412Z,12.20
2023-10-16T23:59:03.546Z,12.20
